JST154 NZAA-YBBN
Flight info
| Callsign | JST154 |
|---|---|
| Flight time | 3h 17m |
| Altitude | 35000 |
| Route | UPLAR A464 DUBUD Q39 SAVER G329 UGTUG |
| Aircraft | A21N/M-SDE2E3FGHIRWXY/LB1 |
Departure
| Time | 2026-05-04 01:22 |
|---|---|
| Airport | Auckland International Airport (NZAA) |
Arrival
| Time | 2026-05-04 04:39 |
|---|---|
| Airport | Brisbane International Airport (YBBN) |
| Time | Latitude | Longitude | Altitude | Speed | Heading |
|---|---|---|---|---|---|
| 2026-05-04 01:14 | -37.00679 | 174.80529 | 28 ft | 0 kts | 251° |
| 2026-05-04 01:16 | -37.00705 | 174.80084 | 25 ft | 4 kts | 130° |
| 2026-05-04 01:16 | -37.00679 | 174.80529 | 25 ft | 0 kts | 251° |
| 2026-05-04 01:22 | -37.00712 | 174.80412 | 28 ft | 49 kts | 250° |
| 2026-05-04 01:22 | -37.00916 | 174.79683 | 25 ft | 125 kts | 251° |
| 2026-05-04 01:22 | -37.01249 | 174.78450 | 250 ft | 162 kts | 251° |
| 2026-05-04 01:22 | -37.01611 | 174.77110 | 1030 ft | 167 kts | 250° |
| 2026-05-04 01:23 | -37.02024 | 174.75696 | 1763 ft | 172 kts | 250° |
| 2026-05-04 01:23 | -37.02426 | 174.74309 | 2429 ft | 173 kts | 251° |
| 2026-05-04 01:23 | -37.02844 | 174.72826 | 2706 ft | 188 kts | 251° |
| 2026-05-04 01:23 | -37.03296 | 174.71176 | 3017 ft | 212 kts | 252° |
| 2026-05-04 01:24 | -37.03791 | 174.69340 | 3418 ft | 234 kts | 252° |
| 2026-05-04 01:24 | -37.04339 | 174.67320 | 3901 ft | 256 kts | 251° |
| 2026-05-04 01:24 | -37.04937 | 174.65129 | 4456 ft | 274 kts | 251° |
| 2026-05-04 01:24 | -37.05559 | 174.62848 | 5316 ft | 279 kts | 250° |
| 2026-05-04 01:25 | -37.06195 | 174.60539 | 6156 ft | 284 kts | 250° |
| 2026-05-04 01:25 | -37.06840 | 174.58190 | 7039 ft | 288 kts | 250° |
| 2026-05-04 01:25 | -37.07495 | 174.55808 | 7868 ft | 291 kts | 250° |
| 2026-05-04 01:25 | -37.08155 | 174.53400 | 8718 ft | 294 kts | 250° |
| 2026-05-04 01:26 | -37.08822 | 174.50962 | 9561 ft | 298 kts | 251° |
| 2026-05-04 01:26 | -37.09498 | 174.48491 | 10404 ft | 302 kts | 251° |
| 2026-05-04 01:26 | -37.10145 | 174.45954 | 10975 ft | 314 kts | 259° |
| 2026-05-04 01:26 | -37.10172 | 174.43142 | 11209 ft | 335 kts | 282° |
| 2026-05-04 01:27 | -37.09314 | 174.40369 | 11551 ft | 348 kts | 301° |
| 2026-05-04 01:27 | -37.08035 | 174.37779 | 12304 ft | 350 kts | 305° |
| 2026-05-04 01:27 | -37.06704 | 174.35255 | 13081 ft | 353 kts | 305° |
| 2026-05-04 01:27 | -37.05365 | 174.32676 | 13843 ft | 356 kts | 304° |
| 2026-05-04 01:28 | -37.04040 | 174.30047 | 14583 ft | 358 kts | 303° |
| 2026-05-04 01:28 | -37.02726 | 174.27381 | 15242 ft | 362 kts | 303° |
| 2026-05-04 01:28 | -37.01410 | 174.24681 | 15893 ft | 365 kts | 303° |
| 2026-05-04 01:28 | -37.00087 | 174.21955 | 16539 ft | 368 kts | 303° |
| 2026-05-04 01:29 | -36.98752 | 174.19204 | 17176 ft | 371 kts | 303° |
| 2026-05-04 01:29 | -36.97404 | 174.16430 | 17813 ft | 375 kts | 303° |
| 2026-05-04 01:29 | -36.96044 | 174.13633 | 18429 ft | 378 kts | 303° |
| 2026-05-04 01:29 | -36.94671 | 174.10814 | 19016 ft | 381 kts | 303° |
| 2026-05-04 01:30 | -36.93286 | 174.07974 | 19573 ft | 384 kts | 303° |
| 2026-05-04 01:30 | -36.91891 | 174.05118 | 20118 ft | 386 kts | 303° |
| 2026-05-04 01:30 | -36.90486 | 174.02242 | 20661 ft | 389 kts | 303° |
| 2026-05-04 01:30 | -36.89071 | 173.99346 | 21198 ft | 392 kts | 303° |
| 2026-05-04 01:31 | -36.87693 | 173.96393 | 21727 ft | 395 kts | 300° |
| 2026-05-04 01:31 | -36.86378 | 173.93364 | 22253 ft | 398 kts | 300° |
| 2026-05-04 01:31 | -36.85070 | 173.90304 | 22776 ft | 401 kts | 300° |
| 2026-05-04 01:31 | -36.83746 | 173.87225 | 23282 ft | 404 kts | 300° |
| 2026-05-04 01:32 | -36.82404 | 173.84135 | 23832 ft | 406 kts | 300° |
| 2026-05-04 01:32 | -36.81048 | 173.81035 | 24303 ft | 408 kts | 300° |
| 2026-05-04 01:32 | -36.79681 | 173.77927 | 24760 ft | 409 kts | 300° |
| 2026-05-04 01:32 | -36.78308 | 173.74811 | 25239 ft | 409 kts | 300° |
| 2026-05-04 01:33 | -36.76934 | 173.71695 | 25697 ft | 410 kts | 300° |
| 2026-05-04 01:33 | -36.75555 | 173.68572 | 26122 ft | 412 kts | 300° |
| 2026-05-04 01:33 | -36.74167 | 173.65432 | 26516 ft | 414 kts | 300° |
| 2026-05-04 01:33 | -36.72772 | 173.62279 | 26915 ft | 416 kts | 300° |
| 2026-05-04 01:34 | -36.71375 | 173.59123 | 27319 ft | 417 kts | 300° |
| 2026-05-04 01:34 | -36.69989 | 173.55992 | 27711 ft | 419 kts | 300° |
| 2026-05-04 01:34 | -36.68578 | 173.52810 | 28094 ft | 420 kts | 300° |
| 2026-05-04 01:34 | -36.67138 | 173.49564 | 28400 ft | 424 kts | 300° |
| 2026-05-04 01:35 | -36.65710 | 173.46350 | 28775 ft | 425 kts | 300° |
| 2026-05-04 01:35 | -36.64297 | 173.43171 | 29116 ft | 426 kts | 300° |
| 2026-05-04 01:35 | -36.62857 | 173.39939 | 29449 ft | 428 kts | 300° |
| 2026-05-04 01:35 | -36.61411 | 173.36698 | 29777 ft | 429 kts | 300° |
| 2026-05-04 01:36 | -36.59960 | 173.33447 | 30100 ft | 430 kts | 300° |
| 2026-05-04 01:36 | -36.58505 | 173.30186 | 30424 ft | 432 kts | 300° |
| 2026-05-04 01:36 | -36.57045 | 173.26915 | 30709 ft | 433 kts | 300° |
| 2026-05-04 01:36 | -36.55575 | 173.23629 | 30919 ft | 436 kts | 300° |
| 2026-05-04 01:37 | -36.54110 | 173.20357 | 31400 ft | 431 kts | 299° |
| 2026-05-04 01:37 | -36.52651 | 173.17101 | 31686 ft | 432 kts | 299° |
| 2026-05-04 01:37 | -36.51182 | 173.13823 | 31863 ft | 436 kts | 300° |
| 2026-05-04 01:37 | -36.49698 | 173.10517 | 32098 ft | 437 kts | 300° |
| 2026-05-04 01:38 | -36.48217 | 173.07222 | 32387 ft | 438 kts | 300° |
| 2026-05-04 01:38 | -36.46729 | 173.03917 | 32660 ft | 439 kts | 300° |
| 2026-05-04 01:38 | -36.45239 | 173.00607 | 32913 ft | 439 kts | 300° |
| 2026-05-04 01:38 | -36.43744 | 172.97292 | 33158 ft | 440 kts | 300° |
| 2026-05-04 01:39 | -36.42246 | 172.93973 | 33427 ft | 441 kts | 300° |
| 2026-05-04 01:39 | -36.40746 | 172.90653 | 33708 ft | 441 kts | 300° |
| 2026-05-04 01:39 | -36.39246 | 172.87336 | 33988 ft | 440 kts | 300° |
| 2026-05-04 01:39 | -36.37747 | 172.84025 | 34261 ft | 440 kts | 300° |
| 2026-05-04 01:40 | -36.36245 | 172.80710 | 34486 ft | 441 kts | 300° |
| 2026-05-04 01:40 | -36.34739 | 172.77388 | 34635 ft | 442 kts | 300° |
| 2026-05-04 01:40 | -36.33234 | 172.74073 | 34919 ft | 440 kts | 300° |
| 2026-05-04 01:40 | -36.31735 | 172.70776 | 35198 ft | 438 kts | 300° |
| 2026-05-04 01:41 | -36.30235 | 172.67478 | 35351 ft | 439 kts | 300° |
| 2026-05-04 01:41 | -36.28733 | 172.64179 | 35482 ft | 441 kts | 300° |
| 2026-05-04 01:41 | -36.27228 | 172.60876 | 35502 ft | 439 kts | 300° |
| 2026-05-04 01:42 | -36.24258 | 172.54370 | 35506 ft | 433 kts | 300° |
| 2026-05-04 01:42 | -36.21294 | 172.47892 | 35502 ft | 435 kts | 300° |
| 2026-05-04 01:43 | -36.18316 | 172.41395 | 35509 ft | 434 kts | 300° |
| 2026-05-04 01:43 | -36.15310 | 172.34846 | 35499 ft | 438 kts | 300° |
| 2026-05-04 01:44 | -36.12312 | 172.28328 | 35501 ft | 435 kts | 300° |
| 2026-05-04 01:44 | -36.09295 | 172.21786 | 35501 ft | 439 kts | 300° |
| 2026-05-04 01:45 | -36.06285 | 172.15268 | 35500 ft | 435 kts | 300° |
| 2026-05-04 01:45 | -36.01752 | 172.05476 | 35496 ft | 437 kts | 300° |
| 2026-05-04 01:46 | -35.98733 | 171.98972 | 35494 ft | 439 kts | 300° |
| 2026-05-04 01:46 | -35.95703 | 171.92457 | 35492 ft | 434 kts | 300° |
| 2026-05-04 01:47 | -35.92703 | 171.86015 | 35493 ft | 435 kts | 300° |
| 2026-05-04 01:47 | -35.89672 | 171.79523 | 35488 ft | 436 kts | 300° |
| 2026-05-04 01:48 | -35.86657 | 171.73076 | 35491 ft | 434 kts | 300° |
| 2026-05-04 01:48 | -35.83620 | 171.66594 | 35488 ft | 436 kts | 300° |
| 2026-05-04 01:49 | -35.80592 | 171.60144 | 35490 ft | 436 kts | 300° |
| 2026-05-04 01:49 | -35.77536 | 171.53645 | 35488 ft | 438 kts | 300° |
| 2026-05-04 01:50 | -35.74504 | 171.47212 | 35482 ft | 434 kts | 300° |
| 2026-05-04 01:50 | -35.71471 | 171.40786 | 35482 ft | 438 kts | 300° |
| 2026-05-04 01:51 | -35.68428 | 171.34353 | 35480 ft | 433 kts | 300° |
| 2026-05-04 01:51 | -35.65369 | 171.27899 | 35481 ft | 439 kts | 300° |
| 2026-05-04 01:52 | -35.62289 | 171.21414 | 35480 ft | 439 kts | 300° |
| 2026-05-04 01:52 | -35.59196 | 171.14909 | 35480 ft | 443 kts | 300° |
| 2026-05-04 01:53 | -35.56183 | 171.08403 | 35480 ft | 435 kts | 295° |
| 2026-05-04 01:53 | -35.53660 | 171.01591 | 35475 ft | 441 kts | 294° |
| 2026-05-04 01:54 | -35.51135 | 170.94724 | 35471 ft | 439 kts | 294° |
| 2026-05-04 01:54 | -35.48617 | 170.87898 | 35465 ft | 439 kts | 294° |
| 2026-05-04 01:55 | -35.46516 | 170.82204 | 35468 ft | 443 kts | 294° |
| 2026-05-04 01:55 | -35.43967 | 170.75314 | 35470 ft | 445 kts | 294° |
| 2026-05-04 01:56 | -35.41420 | 170.68446 | 35468 ft | 441 kts | 294° |
| 2026-05-04 01:56 | -35.38467 | 170.60503 | 35459 ft | 442 kts | 294° |
| 2026-05-04 01:57 | -35.36338 | 170.54795 | 35461 ft | 441 kts | 294° |
| 2026-05-04 01:57 | -35.33772 | 170.47940 | 35460 ft | 442 kts | 294° |
| 2026-05-04 01:58 | -35.31222 | 170.41132 | 35460 ft | 439 kts | 294° |
| 2026-05-04 01:58 | -35.28657 | 170.34299 | 35461 ft | 444 kts | 294° |
| 2026-05-04 01:59 | -35.26079 | 170.27451 | 35449 ft | 441 kts | 294° |
| 2026-05-04 01:59 | -35.23525 | 170.20684 | 35452 ft | 438 kts | 294° |
| 2026-05-04 02:00 | -35.20955 | 170.13887 | 35455 ft | 443 kts | 293° |
| 2026-05-04 02:00 | -35.18349 | 170.07005 | 35455 ft | 445 kts | 293° |
| 2026-05-04 02:01 | -35.15757 | 170.00179 | 35450 ft | 443 kts | 293° |
| 2026-05-04 02:01 | -35.13162 | 169.93358 | 35448 ft | 444 kts | 293° |
| 2026-05-04 02:02 | -35.10546 | 169.86490 | 35443 ft | 448 kts | 293° |
| 2026-05-04 02:02 | -35.07933 | 169.79653 | 35439 ft | 442 kts | 293° |
| 2026-05-04 02:03 | -35.05313 | 169.72815 | 35440 ft | 447 kts | 292° |
| 2026-05-04 02:03 | -35.02683 | 169.65959 | 35443 ft | 446 kts | 293° |
| 2026-05-04 02:04 | -35.00053 | 169.59115 | 35436 ft | 445 kts | 293° |
| 2026-05-04 02:04 | -34.97426 | 169.52296 | 35437 ft | 445 kts | 293° |
| 2026-05-04 02:05 | -34.94784 | 169.45443 | 35442 ft | 448 kts | 293° |
| 2026-05-04 02:05 | -34.92135 | 169.38598 | 35433 ft | 446 kts | 292° |
| 2026-05-04 02:06 | -34.89485 | 169.31762 | 35432 ft | 446 kts | 293° |
| 2026-05-04 02:06 | -34.86830 | 169.24922 | 35425 ft | 447 kts | 293° |
| 2026-05-04 02:07 | -34.84169 | 169.18088 | 35428 ft | 446 kts | 293° |
| 2026-05-04 02:07 | -34.81528 | 169.11318 | 35420 ft | 445 kts | 293° |
| 2026-05-04 02:08 | -34.78876 | 169.04528 | 35403 ft | 444 kts | 293° |
| 2026-05-04 02:08 | -34.76212 | 168.97729 | 35426 ft | 447 kts | 293° |
| 2026-05-04 02:09 | -34.73537 | 168.90919 | 35424 ft | 444 kts | 293° |
| 2026-05-04 02:09 | -34.70870 | 168.84135 | 35429 ft | 445 kts | 293° |
| 2026-05-04 02:10 | -34.68195 | 168.77347 | 35431 ft | 445 kts | 293° |
| 2026-05-04 02:10 | -34.65518 | 168.70570 | 35423 ft | 444 kts | 293° |
| 2026-05-04 02:11 | -34.62844 | 168.63813 | 35415 ft | 443 kts | 293° |
| 2026-05-04 02:11 | -34.60171 | 168.57072 | 35410 ft | 443 kts | 293° |
| 2026-05-04 02:12 | -34.57498 | 168.50346 | 35391 ft | 442 kts | 293° |
| 2026-05-04 02:12 | -34.54825 | 168.43630 | 35389 ft | 442 kts | 293° |
| 2026-05-04 02:13 | -34.52148 | 168.36921 | 35397 ft | 442 kts | 293° |
| 2026-05-04 02:13 | -34.49470 | 168.30225 | 35397 ft | 442 kts | 293° |
| 2026-05-04 02:14 | -34.46785 | 168.23522 | 35396 ft | 442 kts | 293° |
| 2026-05-04 02:14 | -34.44092 | 168.16810 | 35393 ft | 443 kts | 293° |
| 2026-05-04 02:15 | -34.41413 | 168.10148 | 35397 ft | 443 kts | 293° |
| 2026-05-04 02:15 | -34.38713 | 168.03450 | 35405 ft | 443 kts | 292° |
| 2026-05-04 02:16 | -34.36007 | 167.96745 | 35405 ft | 443 kts | 292° |
| 2026-05-04 02:16 | -34.33294 | 167.90046 | 35405 ft | 443 kts | 292° |
| 2026-05-04 02:17 | -34.30579 | 167.83349 | 35407 ft | 443 kts | 292° |
| 2026-05-04 02:17 | -34.27860 | 167.76654 | 35404 ft | 443 kts | 292° |
| 2026-05-04 02:18 | -34.25137 | 167.69963 | 35404 ft | 443 kts | 292° |
| 2026-05-04 02:18 | -34.22411 | 167.63278 | 35403 ft | 443 kts | 292° |
| 2026-05-04 02:19 | -34.19685 | 167.56612 | 35383 ft | 441 kts | 292° |
| 2026-05-04 02:19 | -34.16971 | 167.49983 | 35382 ft | 440 kts | 292° |
| 2026-05-04 02:20 | -34.14252 | 167.43353 | 35382 ft | 440 kts | 292° |
| 2026-05-04 02:20 | -34.11527 | 167.36722 | 35379 ft | 440 kts | 292° |
| 2026-05-04 02:21 | -34.08801 | 167.30102 | 35379 ft | 440 kts | 292° |
| 2026-05-04 02:21 | -34.06075 | 167.23494 | 35381 ft | 440 kts | 292° |
| 2026-05-04 02:22 | -34.03355 | 167.16918 | 35371 ft | 437 kts | 292° |
| 2026-05-04 02:22 | -34.00640 | 167.10360 | 35371 ft | 437 kts | 292° |
| 2026-05-04 02:23 | -33.97918 | 167.03802 | 35368 ft | 437 kts | 292° |
| 2026-05-04 02:23 | -33.95212 | 166.97294 | 35369 ft | 437 kts | 292° |
| 2026-05-04 02:24 | -33.92484 | 166.90746 | 35360 ft | 437 kts | 292° |
| 2026-05-04 02:24 | -33.89754 | 166.84206 | 35368 ft | 437 kts | 292° |
| 2026-05-04 02:25 | -33.87026 | 166.77681 | 35366 ft | 436 kts | 292° |
| 2026-05-04 02:25 | -33.84295 | 166.71165 | 35362 ft | 436 kts | 292° |
| 2026-05-04 02:26 | -33.81564 | 166.64659 | 35357 ft | 435 kts | 292° |
| 2026-05-04 02:26 | -33.78832 | 166.58162 | 35352 ft | 435 kts | 292° |
| 2026-05-04 02:27 | -33.76098 | 166.51672 | 35349 ft | 435 kts | 292° |
| 2026-05-04 02:27 | -33.73368 | 166.45208 | 35346 ft | 433 kts | 292° |
| 2026-05-04 02:28 | -33.70644 | 166.38767 | 35341 ft | 431 kts | 292° |
| 2026-05-04 02:28 | -33.67942 | 166.32389 | 35343 ft | 432 kts | 292° |
| 2026-05-04 02:29 | -33.65217 | 166.25969 | 35341 ft | 431 kts | 292° |
| 2026-05-04 02:29 | -33.62489 | 166.19554 | 35341 ft | 432 kts | 292° |
| 2026-05-04 02:30 | -33.59757 | 166.13143 | 35322 ft | 430 kts | 292° |
| 2026-05-04 02:30 | -33.57045 | 166.06794 | 35345 ft | 428 kts | 292° |
| 2026-05-04 02:31 | -33.54328 | 166.00437 | 35334 ft | 429 kts | 292° |
| 2026-05-04 02:31 | -33.51606 | 165.94084 | 35339 ft | 428 kts | 292° |
| 2026-05-04 02:32 | -33.48882 | 165.87736 | 35326 ft | 428 kts | 292° |
| 2026-05-04 02:32 | -33.46155 | 165.81394 | 35330 ft | 428 kts | 292° |
| 2026-05-04 02:33 | -33.43424 | 165.75057 | 35327 ft | 426 kts | 292° |
| 2026-05-04 02:33 | -33.40713 | 165.68772 | 35327 ft | 426 kts | 292° |
| 2026-05-04 02:34 | -33.37993 | 165.62477 | 35323 ft | 426 kts | 292° |
| 2026-05-04 02:34 | -33.35274 | 165.56201 | 35316 ft | 423 kts | 291° |
| 2026-05-04 02:35 | -33.32561 | 165.49947 | 35316 ft | 424 kts | 291° |
| 2026-05-04 02:35 | -33.29841 | 165.43687 | 35318 ft | 424 kts | 291° |
| 2026-05-04 02:36 | -33.27132 | 165.37466 | 35321 ft | 425 kts | 292° |
| 2026-05-04 02:36 | -33.24399 | 165.31200 | 35319 ft | 425 kts | 292° |
| 2026-05-04 02:37 | -33.21663 | 165.24942 | 35318 ft | 426 kts | 292° |
| 2026-05-04 02:37 | -33.18921 | 165.18678 | 35318 ft | 426 kts | 292° |
| 2026-05-04 02:38 | -33.16176 | 165.12419 | 35318 ft | 425 kts | 292° |
| 2026-05-04 02:38 | -33.13430 | 165.06168 | 35290 ft | 423 kts | 291° |
| 2026-05-04 02:39 | -33.10725 | 165.00031 | 35304 ft | 417 kts | 291° |
| 2026-05-04 02:39 | -33.08018 | 164.93881 | 35298 ft | 419 kts | 291° |
| 2026-05-04 02:40 | -33.05324 | 164.87779 | 35292 ft | 418 kts | 291° |
| 2026-05-04 02:40 | -33.02609 | 164.81641 | 35292 ft | 419 kts | 291° |
| 2026-05-04 02:41 | -32.99894 | 164.75518 | 35288 ft | 417 kts | 291° |
| 2026-05-04 02:41 | -32.97184 | 164.69413 | 35282 ft | 415 kts | 291° |
| 2026-05-04 02:42 | -32.94494 | 164.63363 | 35284 ft | 413 kts | 291° |
| 2026-05-04 02:42 | -32.91802 | 164.57312 | 35279 ft | 414 kts | 291° |
| 2026-05-04 02:43 | -32.89104 | 164.51265 | 35281 ft | 414 kts | 291° |
| 2026-05-04 02:43 | -32.86404 | 164.45221 | 35281 ft | 414 kts | 291° |
| 2026-05-04 02:44 | -32.83700 | 164.39181 | 35280 ft | 414 kts | 291° |
| 2026-05-04 02:44 | -32.80995 | 164.33148 | 35284 ft | 413 kts | 290° |
| 2026-05-04 02:45 | -32.78294 | 164.27136 | 35280 ft | 412 kts | 290° |
| 2026-05-04 02:45 | -32.75590 | 164.21127 | 35273 ft | 412 kts | 290° |
| 2026-05-04 02:46 | -32.73342 | 164.16137 | 35270 ft | 412 kts | 290° |
| 2026-05-04 02:46 | -32.70199 | 164.09174 | 35267 ft | 411 kts | 290° |
| 2026-05-04 02:47 | -32.67934 | 164.04164 | 35263 ft | 411 kts | 290° |
| 2026-05-04 02:47 | -32.65228 | 163.98190 | 35261 ft | 410 kts | 290° |
| 2026-05-04 02:48 | -32.62095 | 163.91284 | 35263 ft | 409 kts | 290° |
| 2026-05-04 02:48 | -32.59834 | 163.86304 | 35256 ft | 409 kts | 290° |
| 2026-05-04 02:49 | -32.57132 | 163.80366 | 35264 ft | 409 kts | 290° |
| 2026-05-04 02:49 | -32.54427 | 163.74430 | 35249 ft | 409 kts | 290° |
| 2026-05-04 02:50 | -32.51722 | 163.68504 | 35258 ft | 409 kts | 290° |
| 2026-05-04 02:50 | -32.49032 | 163.62621 | 35248 ft | 407 kts | 290° |
| 2026-05-04 02:51 | -32.46341 | 163.56747 | 35256 ft | 406 kts | 290° |
| 2026-05-04 02:51 | -32.43646 | 163.50868 | 35257 ft | 406 kts | 290° |
| 2026-05-04 02:52 | -32.40948 | 163.44995 | 35246 ft | 406 kts | 290° |
| 2026-05-04 02:52 | -32.38246 | 163.39124 | 35247 ft | 406 kts | 290° |
| 2026-05-04 02:53 | -32.35542 | 163.33256 | 35243 ft | 406 kts | 290° |
| 2026-05-04 02:53 | -32.32841 | 163.27399 | 35240 ft | 404 kts | 290° |
| 2026-05-04 02:54 | -32.30157 | 163.21585 | 35239 ft | 403 kts | 290° |
| 2026-05-04 02:54 | -32.27466 | 163.15764 | 35238 ft | 404 kts | 290° |
| 2026-05-04 02:55 | -32.23422 | 163.07037 | 35238 ft | 404 kts | 291° |
| 2026-05-04 02:56 | -32.20722 | 163.01222 | 35233 ft | 404 kts | 291° |
| 2026-05-04 02:56 | -32.17966 | 162.95481 | 35233 ft | 404 kts | 291° |
| 2026-05-04 02:57 | -32.15278 | 162.89669 | 35237 ft | 403 kts | 291° |
| 2026-05-04 02:57 | -32.12586 | 162.83862 | 35237 ft | 403 kts | 291° |
| 2026-05-04 02:58 | -32.09879 | 162.78065 | 35228 ft | 403 kts | 291° |
| 2026-05-04 02:58 | -32.07166 | 162.72274 | 35228 ft | 403 kts | 291° |
| 2026-05-04 02:59 | -32.04451 | 162.66486 | 35220 ft | 403 kts | 291° |
| 2026-05-04 02:59 | -32.01736 | 162.60711 | 35221 ft | 403 kts | 291° |
| 2026-05-04 03:00 | -31.99017 | 162.54939 | 35218 ft | 403 kts | 291° |
| 2026-05-04 03:00 | -31.96295 | 162.49171 | 35222 ft | 403 kts | 291° |
| 2026-05-04 03:01 | -31.93570 | 162.43405 | 35222 ft | 403 kts | 291° |
| 2026-05-04 03:01 | -31.90841 | 162.37640 | 35189 ft | 403 kts | 291° |
| 2026-05-04 03:02 | -31.88107 | 162.31870 | 35208 ft | 404 kts | 291° |
| 2026-05-04 03:02 | -31.85369 | 162.26105 | 35207 ft | 403 kts | 291° |
| 2026-05-04 03:03 | -31.82642 | 162.20376 | 35207 ft | 401 kts | 291° |
| 2026-05-04 03:03 | -31.79932 | 162.14683 | 35211 ft | 401 kts | 291° |
| 2026-05-04 03:04 | -31.77202 | 162.08958 | 35205 ft | 401 kts | 291° |
| 2026-05-04 03:04 | -31.74469 | 162.03238 | 35202 ft | 401 kts | 291° |
| 2026-05-04 03:05 | -31.71731 | 161.97514 | 35201 ft | 401 kts | 291° |
| 2026-05-04 03:05 | -31.68995 | 161.91806 | 35200 ft | 401 kts | 291° |
| 2026-05-04 03:06 | -31.66254 | 161.86096 | 35199 ft | 401 kts | 291° |
| 2026-05-04 03:06 | -31.63510 | 161.80388 | 35196 ft | 401 kts | 291° |
| 2026-05-04 03:07 | -31.60764 | 161.74683 | 35194 ft | 401 kts | 291° |
| 2026-05-04 03:07 | -31.58015 | 161.68981 | 35197 ft | 401 kts | 291° |
| 2026-05-04 03:08 | -31.55264 | 161.63282 | 35197 ft | 402 kts | 291° |
| 2026-05-04 03:08 | -31.52510 | 161.57586 | 35190 ft | 401 kts | 291° |
| 2026-05-04 03:09 | -31.49772 | 161.51936 | 35192 ft | 397 kts | 292° |
| 2026-05-04 03:09 | -31.47038 | 161.46298 | 35192 ft | 398 kts | 292° |
| 2026-05-04 03:10 | -31.44305 | 161.40669 | 35182 ft | 398 kts | 292° |
| 2026-05-04 03:10 | -31.41566 | 161.35039 | 35181 ft | 398 kts | 292° |
| 2026-05-04 03:11 | -31.38825 | 161.29413 | 35182 ft | 398 kts | 292° |
| 2026-05-04 03:11 | -31.36099 | 161.23826 | 35181 ft | 398 kts | 292° |
| 2026-05-04 03:12 | -31.33362 | 161.18224 | 35181 ft | 394 kts | 292° |
| 2026-05-04 03:12 | -31.30640 | 161.12663 | 35181 ft | 395 kts | 292° |
| 2026-05-04 03:13 | -31.27908 | 161.07086 | 35176 ft | 395 kts | 292° |
| 2026-05-04 03:13 | -31.25179 | 161.01525 | 35174 ft | 395 kts | 292° |
| 2026-05-04 03:14 | -31.22445 | 160.95961 | 35174 ft | 395 kts | 292° |
| 2026-05-04 03:14 | -31.19708 | 160.90402 | 35171 ft | 395 kts | 292° |
| 2026-05-04 03:15 | -31.16974 | 160.84854 | 35171 ft | 393 kts | 292° |
| 2026-05-04 03:15 | -31.14246 | 160.79327 | 35157 ft | 393 kts | 292° |
| 2026-05-04 03:16 | -31.11517 | 160.73803 | 35170 ft | 393 kts | 293° |
| 2026-05-04 03:16 | -31.08787 | 160.68289 | 35174 ft | 393 kts | 293° |
| 2026-05-04 03:17 | -31.06070 | 160.62809 | 35159 ft | 393 kts | 293° |
| 2026-05-04 03:17 | -31.03332 | 160.57292 | 35160 ft | 393 kts | 293° |
| 2026-05-04 03:18 | -31.00589 | 160.51777 | 35163 ft | 393 kts | 293° |
| 2026-05-04 03:18 | -30.97845 | 160.46266 | 35164 ft | 393 kts | 293° |
| 2026-05-04 03:19 | -30.95098 | 160.40756 | 35158 ft | 393 kts | 293° |
| 2026-05-04 03:19 | -30.92352 | 160.35256 | 35160 ft | 393 kts | 293° |
| 2026-05-04 03:20 | -30.89601 | 160.29754 | 35156 ft | 393 kts | 293° |
| 2026-05-04 03:20 | -30.86848 | 160.24257 | 35157 ft | 393 kts | 293° |
| 2026-05-04 03:21 | -30.84095 | 160.18765 | 35151 ft | 392 kts | 294° |
| 2026-05-04 03:21 | -30.81350 | 160.13302 | 35146 ft | 391 kts | 294° |
| 2026-05-04 03:22 | -30.78604 | 160.07838 | 35146 ft | 391 kts | 294° |
| 2026-05-04 03:22 | -30.75853 | 160.02375 | 35128 ft | 391 kts | 293° |
| 2026-05-04 03:23 | -30.73102 | 159.96921 | 35149 ft | 391 kts | 293° |
| 2026-05-04 03:23 | -30.70346 | 159.91462 | 35144 ft | 392 kts | 294° |
| 2026-05-04 03:24 | -30.67587 | 159.86007 | 35145 ft | 391 kts | 294° |
| 2026-05-04 03:24 | -30.64858 | 159.80618 | 35143 ft | 389 kts | 294° |
| 2026-05-04 03:25 | -30.62111 | 159.75199 | 35139 ft | 390 kts | 294° |
| 2026-05-04 03:25 | -30.59359 | 159.69780 | 35141 ft | 390 kts | 294° |
| 2026-05-04 03:26 | -30.56608 | 159.64368 | 35139 ft | 390 kts | 294° |
| 2026-05-04 03:26 | -30.53851 | 159.58955 | 35137 ft | 390 kts | 294° |
| 2026-05-04 03:27 | -30.51093 | 159.53545 | 35135 ft | 390 kts | 294° |
| 2026-05-04 03:27 | -30.48333 | 159.48142 | 35143 ft | 389 kts | 294° |
| 2026-05-04 03:28 | -30.45574 | 159.42747 | 35139 ft | 389 kts | 294° |
| 2026-05-04 03:28 | -30.42814 | 159.37356 | 35137 ft | 389 kts | 294° |
| 2026-05-04 03:29 | -30.40054 | 159.31972 | 35130 ft | 388 kts | 294° |
| 2026-05-04 03:29 | -30.37294 | 159.26594 | 35115 ft | 388 kts | 294° |
| 2026-05-04 03:30 | -30.34534 | 159.21228 | 35128 ft | 388 kts | 294° |
| 2026-05-04 03:30 | -30.31776 | 159.15871 | 35127 ft | 387 kts | 294° |
| 2026-05-04 03:31 | -30.29021 | 159.10525 | 35123 ft | 387 kts | 294° |
| 2026-05-04 03:31 | -30.26265 | 159.05185 | 35123 ft | 386 kts | 294° |
| 2026-05-04 03:32 | -30.23507 | 158.99850 | 35129 ft | 386 kts | 294° |
| 2026-05-04 03:32 | -30.20750 | 158.94523 | 35121 ft | 386 kts | 294° |
| 2026-05-04 03:33 | -30.17988 | 158.89194 | 35111 ft | 386 kts | 294° |
| 2026-05-04 03:33 | -30.15225 | 158.83869 | 35127 ft | 386 kts | 295° |
| 2026-05-04 03:34 | -30.12460 | 158.78552 | 35122 ft | 386 kts | 295° |
| 2026-05-04 03:34 | -30.09714 | 158.73272 | 35116 ft | 386 kts | 295° |
| 2026-05-04 03:35 | -30.06947 | 158.67961 | 35120 ft | 386 kts | 295° |
| 2026-05-04 03:35 | -30.04179 | 158.62655 | 35115 ft | 386 kts | 295° |
| 2026-05-04 03:36 | -30.01412 | 158.57359 | 35115 ft | 386 kts | 295° |
| 2026-05-04 03:36 | -29.98640 | 158.52061 | 35118 ft | 386 kts | 295° |
| 2026-05-04 03:37 | -29.95866 | 158.46766 | 35093 ft | 386 kts | 295° |
| 2026-05-04 03:37 | -29.93538 | 158.42327 | 35097 ft | 386 kts | 295° |
| 2026-05-04 03:38 | -29.90756 | 158.37029 | 35106 ft | 386 kts | 295° |
| 2026-05-04 03:38 | -29.87968 | 158.31726 | 35099 ft | 387 kts | 295° |
| 2026-05-04 03:39 | -29.85193 | 158.26455 | 35111 ft | 388 kts | 295° |
| 2026-05-04 03:39 | -29.82392 | 158.21144 | 35103 ft | 388 kts | 295° |
| 2026-05-04 03:40 | -29.79591 | 158.15837 | 35117 ft | 388 kts | 295° |
| 2026-05-04 03:40 | -29.76783 | 158.10525 | 35117 ft | 388 kts | 295° |
| 2026-05-04 03:41 | -29.73973 | 158.05216 | 35121 ft | 388 kts | 295° |
| 2026-05-04 03:41 | -29.71161 | 157.99910 | 35120 ft | 388 kts | 295° |
| 2026-05-04 03:42 | -29.68349 | 157.94611 | 35116 ft | 388 kts | 295° |
| 2026-05-04 03:42 | -29.65537 | 157.89319 | 35099 ft | 388 kts | 295° |
| 2026-05-04 03:43 | -29.62728 | 157.84040 | 35095 ft | 385 kts | 296° |
| 2026-05-04 03:43 | -29.59933 | 157.78793 | 35107 ft | 385 kts | 296° |
| 2026-05-04 03:44 | -29.57132 | 157.73539 | 35105 ft | 389 kts | 296° |
| 2026-05-04 03:44 | -29.54296 | 157.68228 | 35102 ft | 389 kts | 296° |
| 2026-05-04 03:45 | -29.51463 | 157.62933 | 35100 ft | 389 kts | 296° |
| 2026-05-04 03:45 | -29.48625 | 157.57635 | 35100 ft | 389 kts | 296° |
| 2026-05-04 03:46 | -29.45788 | 157.52344 | 35100 ft | 388 kts | 296° |
| 2026-05-04 03:46 | -29.42960 | 157.47077 | 35089 ft | 387 kts | 296° |
| 2026-05-04 03:47 | -29.40140 | 157.41832 | 35077 ft | 386 kts | 296° |
| 2026-05-04 03:47 | -29.37326 | 157.36602 | 35096 ft | 387 kts | 296° |
| 2026-05-04 03:48 | -29.34485 | 157.31328 | 35097 ft | 389 kts | 296° |
| 2026-05-04 03:48 | -29.31659 | 157.26094 | 35097 ft | 389 kts | 296° |
| 2026-05-04 03:49 | -29.28794 | 157.20793 | 35097 ft | 388 kts | 296° |
| 2026-05-04 03:49 | -29.25980 | 157.15595 | 35091 ft | 387 kts | 296° |
| 2026-05-04 03:50 | -29.23142 | 157.10353 | 35091 ft | 387 kts | 296° |
| 2026-05-04 03:50 | -29.20301 | 157.05116 | 35091 ft | 387 kts | 296° |
| 2026-05-04 03:51 | -29.17457 | 156.99879 | 35087 ft | 389 kts | 296° |
| 2026-05-04 03:51 | -29.14582 | 156.94587 | 35091 ft | 392 kts | 296° |
| 2026-05-04 03:52 | -29.11712 | 156.89315 | 35084 ft | 389 kts | 296° |
| 2026-05-04 03:52 | -29.08851 | 156.84061 | 35087 ft | 390 kts | 296° |
| 2026-05-04 03:53 | -29.05984 | 156.78804 | 35087 ft | 390 kts | 297° |
| 2026-05-04 03:53 | -29.03114 | 156.73548 | 35090 ft | 390 kts | 297° |
| 2026-05-04 03:54 | -29.00220 | 156.68307 | 35085 ft | 391 kts | 298° |
| 2026-05-04 03:54 | -28.97322 | 156.63073 | 35090 ft | 389 kts | 296° |
| 2026-05-04 03:55 | -28.94487 | 156.57849 | 35088 ft | 390 kts | 297° |
| 2026-05-04 03:55 | -28.91619 | 156.52612 | 35095 ft | 389 kts | 297° |
| 2026-05-04 03:56 | -28.88741 | 156.47380 | 35092 ft | 389 kts | 297° |
| 2026-05-04 03:56 | -28.85862 | 156.42154 | 35090 ft | 389 kts | 297° |
| 2026-05-04 03:57 | -28.82982 | 156.36934 | 35088 ft | 389 kts | 297° |
| 2026-05-04 03:57 | -28.80103 | 156.31720 | 35085 ft | 388 kts | 297° |
| 2026-05-04 03:58 | -28.75781 | 156.23908 | 35079 ft | 388 kts | 297° |
| 2026-05-04 03:58 | -28.72905 | 156.18716 | 35082 ft | 387 kts | 297° |
| 2026-05-04 03:59 | -28.70028 | 156.13530 | 35081 ft | 387 kts | 297° |
| 2026-05-04 03:59 | -28.67150 | 156.08348 | 35077 ft | 387 kts | 297° |
| 2026-05-04 04:00 | -28.64271 | 156.03171 | 35080 ft | 387 kts | 297° |
| 2026-05-04 04:00 | -28.61391 | 155.97998 | 35079 ft | 387 kts | 297° |
| 2026-05-04 04:01 | -28.58509 | 155.92828 | 35071 ft | 387 kts | 297° |
| 2026-05-04 04:01 | -28.55644 | 155.87697 | 35080 ft | 387 kts | 297° |
| 2026-05-04 04:02 | -28.52744 | 155.82506 | 35081 ft | 387 kts | 297° |
| 2026-05-04 04:02 | -28.49857 | 155.77347 | 35081 ft | 387 kts | 297° |
| 2026-05-04 04:03 | -28.46988 | 155.72225 | 35080 ft | 387 kts | 297° |
| 2026-05-04 04:03 | -28.44099 | 155.67071 | 35074 ft | 387 kts | 297° |
| 2026-05-04 04:04 | -28.41204 | 155.61921 | 35075 ft | 387 kts | 298° |
| 2026-05-04 04:04 | -28.38307 | 155.56768 | 35078 ft | 386 kts | 298° |
| 2026-05-04 04:05 | -28.35411 | 155.51625 | 35078 ft | 386 kts | 298° |
| 2026-05-04 04:05 | -28.32514 | 155.46485 | 35077 ft | 386 kts | 298° |
| 2026-05-04 04:06 | -28.29616 | 155.41349 | 35077 ft | 386 kts | 298° |
| 2026-05-04 04:06 | -28.26716 | 155.36217 | 35076 ft | 386 kts | 298° |
| 2026-05-04 04:07 | -28.23818 | 155.31095 | 35075 ft | 386 kts | 298° |
| 2026-05-04 04:07 | -28.20915 | 155.25970 | 35075 ft | 386 kts | 298° |
| 2026-05-04 04:08 | -28.18012 | 155.20849 | 35074 ft | 386 kts | 298° |
| 2026-05-04 04:08 | -28.15106 | 155.15731 | 35074 ft | 386 kts | 298° |
| 2026-05-04 04:09 | -28.12199 | 155.10616 | 35074 ft | 386 kts | 298° |
| 2026-05-04 04:09 | -28.09308 | 155.05538 | 35074 ft | 386 kts | 298° |
| 2026-05-04 04:10 | -28.06397 | 155.00428 | 35071 ft | 386 kts | 298° |
| 2026-05-04 04:10 | -28.03485 | 154.95323 | 35074 ft | 386 kts | 298° |
| 2026-05-04 04:11 | -28.00839 | 154.90690 | 35074 ft | 386 kts | 298° |
| 2026-05-04 04:11 | -27.97922 | 154.85592 | 35077 ft | 386 kts | 298° |
| 2026-05-04 04:12 | -27.95006 | 154.80498 | 35065 ft | 386 kts | 298° |
| 2026-05-04 04:12 | -27.92089 | 154.75407 | 35066 ft | 386 kts | 298° |
| 2026-05-04 04:13 | -27.89166 | 154.70313 | 34847 ft | 387 kts | 298° |
| 2026-05-04 04:13 | -27.87702 | 154.67762 | 34615 ft | 387 kts | 298° |
| 2026-05-04 04:13 | -27.86235 | 154.65209 | 34383 ft | 387 kts | 298° |
| 2026-05-04 04:14 | -27.84765 | 154.62652 | 33832 ft | 390 kts | 298° |
| 2026-05-04 04:14 | -27.83277 | 154.60060 | 32831 ft | 398 kts | 299° |
| 2026-05-04 04:14 | -27.81765 | 154.57433 | 32075 ft | 398 kts | 299° |
| 2026-05-04 04:14 | -27.80252 | 154.54805 | 31239 ft | 400 kts | 300° |
| 2026-05-04 04:15 | -27.78748 | 154.52197 | 30727 ft | 394 kts | 300° |
| 2026-05-04 04:15 | -27.77254 | 154.49610 | 30094 ft | 392 kts | 300° |
| 2026-05-04 04:15 | -27.75774 | 154.47046 | 29487 ft | 387 kts | 300° |
| 2026-05-04 04:15 | -27.74312 | 154.44513 | 28895 ft | 383 kts | 300° |
| 2026-05-04 04:16 | -27.72867 | 154.42011 | 28310 ft | 378 kts | 300° |
| 2026-05-04 04:16 | -27.71436 | 154.39536 | 27730 ft | 375 kts | 300° |
| 2026-05-04 04:16 | -27.70018 | 154.37083 | 27145 ft | 372 kts | 300° |
| 2026-05-04 04:16 | -27.68611 | 154.34650 | 26571 ft | 369 kts | 301° |
| 2026-05-04 04:17 | -27.67213 | 154.32234 | 25997 ft | 367 kts | 301° |
| 2026-05-04 04:17 | -27.65820 | 154.29827 | 25411 ft | 365 kts | 301° |
| 2026-05-04 04:17 | -27.64433 | 154.27434 | 24825 ft | 364 kts | 301° |
| 2026-05-04 04:17 | -27.63049 | 154.25046 | 24231 ft | 363 kts | 301° |
| 2026-05-04 04:18 | -27.61668 | 154.22666 | 23621 ft | 363 kts | 302° |
| 2026-05-04 04:18 | -27.60290 | 154.20291 | 23021 ft | 361 kts | 302° |
| 2026-05-04 04:18 | -27.58939 | 154.17966 | 22446 ft | 358 kts | 302° |
| 2026-05-04 04:18 | -27.57579 | 154.15627 | 21845 ft | 356 kts | 302° |
| 2026-05-04 04:19 | -27.56227 | 154.13301 | 21268 ft | 354 kts | 302° |
| 2026-05-04 04:19 | -27.54879 | 154.10986 | 20682 ft | 352 kts | 302° |
| 2026-05-04 04:19 | -27.53549 | 154.08670 | 20042 ft | 352 kts | 300° |
| 2026-05-04 04:19 | -27.52445 | 154.06215 | 19486 ft | 351 kts | 292° |
| 2026-05-04 04:20 | -27.51643 | 154.03623 | 18885 ft | 351 kts | 285° |
| 2026-05-04 04:20 | -27.51133 | 154.00929 | 18253 ft | 352 kts | 281° |
| 2026-05-04 04:20 | -27.50703 | 153.98219 | 17654 ft | 351 kts | 281° |
| 2026-05-04 04:20 | -27.50265 | 153.95524 | 17048 ft | 349 kts | 281° |
| 2026-05-04 04:21 | -27.49824 | 153.92838 | 16439 ft | 348 kts | 281° |
| 2026-05-04 04:21 | -27.49383 | 153.90157 | 15831 ft | 348 kts | 281° |
| 2026-05-04 04:21 | -27.48942 | 153.87478 | 15267 ft | 347 kts | 281° |
| 2026-05-04 04:21 | -27.48501 | 153.84803 | 14626 ft | 349 kts | 281° |
| 2026-05-04 04:22 | -27.48060 | 153.82125 | 14011 ft | 349 kts | 281° |
| 2026-05-04 04:22 | -27.47617 | 153.79439 | 13406 ft | 348 kts | 281° |
| 2026-05-04 04:22 | -27.47177 | 153.76758 | 12699 ft | 350 kts | 280° |
| 2026-05-04 04:22 | -27.46990 | 153.74041 | 12130 ft | 348 kts | 270° |
| 2026-05-04 04:23 | -27.47247 | 153.71331 | 11511 ft | 350 kts | 259° |
| 2026-05-04 04:23 | -27.47857 | 153.68705 | 11164 ft | 342 kts | 256° |
| 2026-05-04 04:23 | -27.48460 | 153.66175 | 11028 ft | 327 kts | 256° |
| 2026-05-04 04:23 | -27.49028 | 153.63752 | 10916 ft | 313 kts | 256° |
| 2026-05-04 04:24 | -27.49389 | 153.62201 | 10830 ft | 304 kts | 256° |
| 2026-05-04 04:24 | -27.49915 | 153.59932 | 10452 ft | 295 kts | 256° |
| 2026-05-04 04:24 | -27.50600 | 153.56979 | 10144 ft | 295 kts | 255° |
| 2026-05-04 04:24 | -27.50950 | 153.55469 | 9974 ft | 295 kts | 255° |
| 2026-05-04 04:25 | -27.51465 | 153.53255 | 9712 ft | 290 kts | 255° |
| 2026-05-04 04:25 | -27.51971 | 153.51079 | 9456 ft | 292 kts | 255° |
| 2026-05-04 04:25 | -27.52493 | 153.48836 | 9219 ft | 292 kts | 255° |
| 2026-05-04 04:25 | -27.52999 | 153.46660 | 8982 ft | 291 kts | 255° |
| 2026-05-04 04:26 | -27.53658 | 153.44509 | 8731 ft | 291 kts | 245° |
| 2026-05-04 04:26 | -27.54533 | 153.42464 | 8490 ft | 289 kts | 244° |
| 2026-05-04 04:26 | -27.55398 | 153.40426 | 8250 ft | 289 kts | 244° |
| 2026-05-04 04:26 | -27.56260 | 153.38378 | 8005 ft | 289 kts | 244° |
| 2026-05-04 04:27 | -27.57116 | 153.36341 | 7765 ft | 286 kts | 244° |
| 2026-05-04 04:27 | -27.57965 | 153.34318 | 7521 ft | 286 kts | 244° |
| 2026-05-04 04:27 | -27.58818 | 153.32288 | 7277 ft | 286 kts | 244° |
| 2026-05-04 04:27 | -27.59654 | 153.30255 | 7032 ft | 285 kts | 248° |
| 2026-05-04 04:28 | -27.60252 | 153.28137 | 6772 ft | 283 kts | 254° |
| 2026-05-04 04:28 | -27.60784 | 153.26002 | 6491 ft | 284 kts | 254° |
| 2026-05-04 04:28 | -27.61323 | 153.23867 | 6205 ft | 282 kts | 254° |
| 2026-05-04 04:28 | -27.61875 | 153.21748 | 5933 ft | 281 kts | 250° |
| 2026-05-04 04:29 | -27.62636 | 153.19740 | 5723 ft | 275 kts | 245° |
| 2026-05-04 04:29 | -27.63402 | 153.17825 | 5578 ft | 260 kts | 245° |
| 2026-05-04 04:29 | -27.64131 | 153.15988 | 5486 ft | 255 kts | 246° |
| 2026-05-04 04:29 | -27.64836 | 153.14202 | 5369 ft | 244 kts | 246° |
| 2026-05-04 04:30 | -27.65525 | 153.12453 | 5057 ft | 242 kts | 246° |
| 2026-05-04 04:30 | -27.66204 | 153.10731 | 4818 ft | 236 kts | 246° |
| 2026-05-04 04:30 | -27.66849 | 153.09095 | 4765 ft | 218 kts | 246° |
| 2026-05-04 04:30 | -27.67284 | 153.07480 | 4311 ft | 216 kts | 262° |
| 2026-05-04 04:31 | -27.67345 | 153.05840 | 4138 ft | 201 kts | 271° |
| 2026-05-04 04:31 | -27.67350 | 153.04290 | 3873 ft | 195 kts | 270° |
| 2026-05-04 04:31 | -27.67149 | 153.02785 | 3507 ft | 194 kts | 291° |
| 2026-05-04 04:31 | -27.66498 | 153.01474 | 3244 ft | 188 kts | 304° |
| 2026-05-04 04:32 | -27.65676 | 153.00276 | 3060 ft | 196 kts | 320° |
| 2026-05-04 04:32 | -27.64527 | 152.99536 | 3002 ft | 189 kts | 345° |
| 2026-05-04 04:32 | -27.63234 | 152.99254 | 3005 ft | 191 kts | 354° |
| 2026-05-04 04:32 | -27.61957 | 152.99381 | 2999 ft | 186 kts | 21° |
| 2026-05-04 04:33 | -27.60805 | 153.00035 | 2996 ft | 188 kts | 30° |
| 2026-05-04 04:33 | -27.59695 | 153.00675 | 2990 ft | 167 kts | 28° |
| 2026-05-04 04:33 | -27.58748 | 153.01213 | 3004 ft | 139 kts | 29° |
| 2026-05-04 04:33 | -27.57904 | 153.01700 | 3004 ft | 137 kts | 29° |
| 2026-05-04 04:34 | -27.57054 | 153.02191 | 2963 ft | 137 kts | 29° |
| 2026-05-04 04:34 | -27.56221 | 153.02669 | 2799 ft | 132 kts | 30° |
| 2026-05-04 04:34 | -27.55404 | 153.03139 | 2519 ft | 132 kts | 29° |
| 2026-05-04 04:34 | -27.54584 | 153.03610 | 2492 ft | 130 kts | 30° |
| 2026-05-04 04:35 | -27.53745 | 153.04093 | 2490 ft | 135 kts | 30° |
| 2026-05-04 04:35 | -27.52913 | 153.04570 | 2497 ft | 133 kts | 30° |
| 2026-05-04 04:35 | -27.52083 | 153.05047 | 2503 ft | 136 kts | 30° |
| 2026-05-04 04:35 | -27.51253 | 153.05524 | 2489 ft | 134 kts | 30° |
| 2026-05-04 04:36 | -27.50418 | 153.06003 | 2419 ft | 133 kts | 30° |
| 2026-05-04 04:36 | -27.49599 | 153.06473 | 2157 ft | 133 kts | 30° |
| 2026-05-04 04:36 | -27.48779 | 153.06944 | 1849 ft | 132 kts | 31° |
| 2026-05-04 04:36 | -27.47969 | 153.07409 | 1565 ft | 131 kts | 30° |
| 2026-05-04 04:37 | -27.45541 | 153.08802 | 1119 ft | 131 kts | 30° |
| 2026-05-04 04:37 | -27.44725 | 153.09271 | 1014 ft | 133 kts | 29° |
| 2026-05-04 04:38 | -27.43917 | 153.09734 | 1007 ft | 129 kts | 30° |
| 2026-05-04 04:38 | -27.43081 | 153.10231 | 826 ft | 138 kts | 31° |
| 2026-05-04 04:38 | -27.42242 | 153.10686 | 592 ft | 130 kts | 29° |
| 2026-05-04 04:38 | -27.41481 | 153.11138 | 385 ft | 121 kts | 32° |
| 2026-05-04 04:39 | -27.40698 | 153.11577 | 102 ft | 130 kts | 30° |
| 2026-05-04 04:39 | -27.39935 | 153.12028 | 19 ft | 113 kts | 32° |
| 2026-05-04 04:39 | -27.39368 | 153.12358 | 19 ft | 65 kts | 27° |
| 2026-05-04 04:39 | -27.39038 | 153.12527 | 21 ft | 44 kts | 26° |
| 2026-05-04 04:40 | -27.38760 | 153.12650 | 20 ft | 42 kts | 9° |
| 2026-05-04 04:40 | -27.38473 | 153.12651 | 19 ft | 36 kts | 358° |
| 2026-05-04 04:40 | -27.38407 | 153.12529 | 18 ft | 22 kts | 214° |
| 2026-05-04 04:40 | -27.38537 | 153.12434 | 18 ft | 21 kts | 250° |
| 2026-05-04 04:41 | -27.38491 | 153.12280 | 19 ft | 23 kts | 307° |
| 2026-05-04 04:41 | -27.38378 | 153.12192 | 17 ft | 15 kts | 313° |
| 2026-05-04 04:41 | -27.38377 | 153.12135 | 17 ft | 0 kts | 264° |